createdAt,value
2018-03-04T00:01:40.548Z,23.00
2018-03-04T00:04:10.343Z,27.20
2018-03-04T00:06:40.129Z,31.13
2018-03-04T00:09:09.957Z,33.37
2018-03-04T00:11:39.872Z,32.20
2018-03-04T00:14:09.678Z,33.53
2018-03-04T00:16:39.424Z,35.67
2018-03-04T00:19:09.174Z,37.87
2018-03-04T00:21:38.959Z,40.43
2018-03-04T00:24:08.840Z,40.33
2018-03-04T00:26:38.629Z,40.30
2018-03-04T00:29:08.452Z,40.87
2018-03-04T00:31:38.219Z,40.73
2018-03-04T00:34:08.034Z,42.17
2018-03-04T00:36:37.798Z,43.00
2018-03-04T00:39:07.625Z,42.53
2018-03-04T00:41:37.444Z,42.77
2018-03-04T00:44:07.212Z,43.13
2018-03-04T00:46:36.929Z,41.70
2018-03-04T00:49:06.721Z,41.77
2018-03-04T00:51:36.495Z,42.03
2018-03-04T00:54:06.377Z,43.43
2018-03-04T00:56:36.147Z,44.57
2018-03-04T00:59:05.930Z,45.23
2018-03-04T01:01:35.784Z,43.23
2018-03-04T01:04:05.581Z,46.20
2018-03-04T01:06:35.417Z,44.73
2018-03-04T01:09:05.260Z,45.53
2018-03-04T01:11:35.081Z,44.80
2018-03-04T01:14:04.879Z,44.77
2018-03-04T01:16:34.610Z,44.30
2018-03-04T01:19:04.420Z,44.23
2018-03-04T01:21:34.179Z,45.03
2018-03-04T01:24:04.031Z,44.07
2018-03-04T01:26:33.824Z,42.87
2018-03-04T01:29:03.622Z,46.17
2018-03-04T01:31:33.432Z,44.53
2018-03-04T01:34:03.218Z,45.17
2018-03-04T01:36:32.985Z,46.37
2018-03-04T01:39:02.822Z,43.07
2018-03-04T01:41:32.602Z,43.83
2018-03-04T01:44:02.455Z,45.50
2018-03-04T01:46:32.185Z,44.23
2018-03-04T01:49:01.961Z,44.03
2018-03-04T01:51:43.422Z,42.33
2018-03-04T01:54:13.215Z,42.47
2018-03-04T01:56:42.963Z,43.57
2018-03-04T01:59:12.856Z,44.57
2018-03-04T02:01:42.682Z,47.50
2018-03-04T02:04:12.441Z,45.77
2018-03-04T02:06:43.265Z,44.10
2018-03-04T02:09:13.035Z,40.93
2018-03-04T02:11:42.858Z,42.00
2018-03-04T02:14:12.662Z,43.57
2018-03-04T02:16:42.394Z,44.43
2018-03-04T02:19:12.115Z,42.43
2018-03-04T02:21:41.892Z,42.53
2018-03-04T02:24:11.685Z,40.93
2018-03-04T02:26:41.451Z,45.17
2018-03-04T02:29:11.284Z,44.53
2018-03-04T02:31:41.140Z,42.90
2018-03-04T02:34:10.981Z,45.53
2018-03-04T02:36:40.760Z,43.63
2018-03-04T02:39:10.682Z,42.77
2018-03-04T02:41:40.463Z,43.00
2018-03-04T02:44:10.265Z,44.57
2018-03-04T02:46:40.031Z,39.67
2018-03-04T02:49:09.792Z,41.60
2018-03-04T02:51:39.621Z,43.33
2018-03-04T02:54:09.428Z,40.80
2018-03-04T02:56:39.272Z,44.37
2018-03-04T02:59:09.081Z,44.80
2018-03-04T03:01:38.912Z,44.77
2018-03-04T03:04:08.811Z,46.07
2018-03-04T03:06:38.567Z,47.67
2018-03-04T03:09:08.357Z,48.83
2018-03-04T03:11:38.144Z,45.10
2018-03-04T03:14:07.976Z,47.37
2018-03-04T03:16:37.699Z,46.23
2018-03-04T03:19:07.440Z,52.37
2018-03-04T03:21:37.386Z,51.77
2018-03-04T03:24:07.218Z,53.97
2018-03-04T03:26:36.979Z,51.93
2018-03-04T03:29:06.773Z,52.47
2018-03-04T03:31:36.593Z,50.17
2018-03-04T03:34:06.403Z,48.27
2018-03-04T03:36:36.100Z,46.70
2018-03-04T03:39:06.083Z,51.67
2018-03-04T03:41:35.846Z,45.10
2018-03-04T03:44:05.680Z,50.60
2018-03-04T03:46:35.488Z,45.80
2018-03-04T03:49:05.208Z,45.77
2018-03-04T03:51:35.053Z,39.50
2018-03-04T03:54:04.787Z,46.77
2018-03-04T03:56:34.542Z,43.03
2018-03-04T03:59:04.364Z,48.63
2018-03-04T04:01:34.222Z,48.57
2018-03-04T04:04:04.109Z,49.50
2018-03-04T04:06:33.914Z,42.70
2018-03-04T04:09:03.924Z,41.97
2018-03-04T04:11:33.752Z,43.07
2018-03-04T04:14:03.592Z,47.07
2018-03-04T04:16:33.330Z,49.00
2018-03-04T04:19:03.069Z,43.70
2018-03-04T04:21:32.934Z,41.00
2018-03-04T04:24:02.701Z,36.87
2018-03-04T04:26:32.454Z,32.60
2018-03-04T04:29:02.255Z,32.93
2018-03-04T04:31:32.097Z,37.50
2018-03-04T04:34:01.960Z,40.13
2018-03-04T04:36:31.668Z,41.07
2018-03-04T04:39:01.550Z,44.47
2018-03-04T04:41:31.351Z,48.23
2018-03-04T04:44:01.137Z,51.00
2018-03-04T04:46:31.020Z,51.83
2018-03-04T04:49:00.782Z,47.00
2018-03-04T04:51:30.741Z,49.60
2018-03-04T04:54:00.526Z,51.97
2018-03-04T04:56:30.286Z,49.33
2018-03-04T04:59:00.062Z,49.10
2018-03-04T05:01:29.861Z,46.90
2018-03-04T05:03:59.711Z,47.13
2018-03-04T05:06:29.427Z,45.20
2018-03-04T05:08:59.181Z,46.10
2018-03-04T05:11:28.984Z,44.73
2018-03-04T05:13:58.839Z,48.00
2018-03-04T05:16:28.663Z,48.07
2018-03-04T05:18:58.375Z,45.47
2018-03-04T05:21:28.178Z,47.87
2018-03-04T05:23:57.994Z,47.87
2018-03-04T05:26:27.712Z,47.50
2018-03-04T05:28:57.520Z,46.53
2018-03-04T05:31:27.280Z,49.00
2018-03-04T05:33:57.115Z,49.60
2018-03-04T05:36:26.907Z,48.60
2018-03-04T05:38:56.687Z,47.63
2018-03-04T05:41:26.500Z,47.40
2018-03-04T05:43:56.393Z,48.70
2018-03-04T05:46:26.136Z,46.90
2018-03-04T05:48:55.875Z,47.43
2018-03-04T05:51:25.619Z,46.67
2018-03-04T05:53:55.425Z,50.47
2018-03-04T05:56:25.122Z,51.23
2018-03-04T05:58:54.917Z,50.87
2018-03-04T06:01:24.730Z,49.50
2018-03-04T06:03:54.500Z,49.40
2018-03-04T06:06:24.285Z,51.73
2018-03-04T06:08:54.028Z,51.03
2018-03-04T06:11:23.800Z,54.73
2018-03-04T06:13:53.597Z,52.97
2018-03-04T06:16:23.318Z,54.50
2018-03-04T06:18:53.070Z,54.37
2018-03-04T06:21:22.912Z,51.47
2018-03-04T06:23:52.736Z,48.83
2018-03-04T06:26:22.509Z,47.23
2018-03-04T06:28:52.248Z,47.97
2018-03-04T06:31:22.004Z,48.53
2018-03-04T06:33:51.824Z,46.27
2018-03-04T06:36:21.593Z,50.47
2018-03-04T06:38:51.456Z,55.27
2018-03-04T06:41:21.268Z,66.33
2018-03-04T06:43:51.163Z,73.00
2018-03-04T06:46:20.881Z,98.33
2018-03-04T06:49:02.879Z,91.97
2018-03-04T06:51:45.419Z,72.87
2018-03-04T06:54:15.241Z,68.00
2018-03-04T06:56:44.966Z,64.23
2018-03-04T06:59:14.798Z,61.33
2018-03-04T07:01:44.610Z,62.97
2018-03-04T07:04:14.411Z,60.20
2018-03-04T07:06:44.186Z,60.13
2018-03-04T07:09:13.960Z,60.33
2018-03-04T07:11:43.774Z,58.10
2018-03-04T07:14:13.599Z,61.27
2018-03-04T07:16:43.316Z,61.60
2018-03-04T07:19:13.094Z,59.00
2018-03-04T07:21:42.897Z,59.57
2018-03-04T07:24:12.626Z,56.63
2018-03-04T07:26:42.428Z,60.67
2018-03-04T07:29:12.219Z,61.60
2018-03-04T07:31:42.108Z,60.37
2018-03-04T07:34:11.881Z,58.53
2018-03-04T07:36:41.598Z,63.13
2018-03-04T07:39:11.453Z,65.70
2018-03-04T07:41:41.332Z,65.20
2018-03-04T07:44:11.118Z,65.63
2018-03-04T07:46:40.890Z,62.67
2018-03-04T07:49:10.614Z,64.30
2018-03-04T07:51:40.476Z,67.07
2018-03-04T07:54:10.326Z,68.70
2018-03-04T07:56:40.142Z,71.93
2018-03-04T07:59:10.019Z,74.73
2018-03-04T08:01:39.837Z,71.13
2018-03-04T08:04:09.669Z,69.80
2018-03-04T08:06:39.401Z,64.23
2018-03-04T08:09:09.210Z,57.20
2018-03-04T08:11:38.990Z,59.37
2018-03-04T08:14:08.787Z,57.20
2018-03-04T08:16:38.550Z,60.83
2018-03-04T08:19:08.310Z,59.63
2018-03-04T08:21:38.077Z,53.97
2018-03-04T08:24:07.811Z,54.53
2018-03-04T08:26:49.296Z,54.30
2018-03-04T08:29:19.044Z,53.20
2018-03-04T08:31:48.965Z,52.90
2018-03-04T08:34:18.736Z,50.90
2018-03-04T08:36:48.455Z,50.80
2018-03-04T08:39:18.259Z,49.77
2018-03-04T08:41:48.004Z,46.80
2018-03-04T08:44:17.794Z,47.13
2018-03-04T08:46:47.507Z,47.30
2018-03-04T08:49:17.217Z,47.67
2018-03-04T08:51:47.075Z,48.30
2018-03-04T08:54:16.865Z,47.47
2018-03-04T08:56:46.598Z,46.27
2018-03-04T08:59:16.432Z,49.00
2018-03-04T09:01:46.253Z,46.77
2018-03-04T09:04:16.051Z,48.90
2018-03-04T09:06:45.786Z,51.50
2018-03-04T09:09:15.572Z,50.10
2018-03-04T09:11:45.410Z,50.10
2018-03-04T09:14:15.166Z,50.30
2018-03-04T09:16:44.940Z,48.43
2018-03-04T09:19:14.692Z,46.17
2018-03-04T09:21:44.443Z,44.40
2018-03-04T09:24:14.289Z,44.93
2018-03-04T09:26:44.017Z,44.00
2018-03-04T09:29:13.893Z,46.30
2018-03-04T09:31:43.644Z,46.77
2018-03-04T09:34:13.472Z,44.07
2018-03-04T09:36:43.245Z,44.20
2018-03-04T09:39:13.010Z,44.17
2018-03-04T09:41:42.875Z,45.33
2018-03-04T09:44:12.659Z,44.97
2018-03-04T09:46:42.396Z,42.70
2018-03-04T09:49:12.275Z,44.97
2018-03-04T09:51:42.005Z,44.63
2018-03-04T09:54:11.893Z,43.87
2018-03-04T09:56:41.628Z,43.80
2018-03-04T09:59:11.519Z,47.30
2018-03-04T10:01:41.302Z,47.57
2018-03-04T10:04:11.069Z,47.33
2018-03-04T10:06:40.839Z,46.93
2018-03-04T10:09:10.598Z,46.87
2018-03-04T10:11:40.433Z,44.43
2018-03-04T10:14:10.225Z,43.37
2018-03-04T10:16:39.951Z,42.87
2018-03-04T10:19:09.777Z,43.33
2018-03-04T10:21:39.531Z,43.17
2018-03-04T10:24:09.346Z,42.37
2018-03-04T10:26:39.095Z,44.50
2018-03-04T10:29:08.996Z,42.20
2018-03-04T10:31:38.829Z,43.23
2018-03-04T10:34:08.615Z,45.63
2018-03-04T10:36:38.389Z,45.13
2018-03-04T10:39:08.218Z,46.20
2018-03-04T10:41:37.994Z,45.60
2018-03-04T10:44:07.804Z,45.90
2018-03-04T10:46:37.520Z,48.67
2018-03-04T10:49:07.299Z,49.13
2018-03-04T10:51:37.008Z,47.60
2018-03-04T10:54:06.809Z,57.13
2018-03-04T10:56:36.598Z,57.77
2018-03-04T10:59:06.368Z,58.70
2018-03-04T11:01:51.112Z,57.20
2018-03-04T11:04:21.078Z,55.17
2018-03-04T11:06:50.871Z,54.50
2018-03-04T11:09:20.657Z,60.23
2018-03-04T11:11:50.495Z,61.27
2018-03-04T11:14:20.378Z,54.60
2018-03-04T11:16:50.164Z,58.03
2018-03-04T11:19:19.952Z,66.43
2018-03-04T11:21:49.664Z,67.17
2018-03-04T11:24:19.491Z,69.20
2018-03-04T11:26:49.230Z,72.30
2018-03-04T11:29:19.047Z,71.77
2018-03-04T11:31:48.838Z,71.07
2018-03-04T11:34:18.562Z,69.33
2018-03-04T11:36:48.318Z,66.60
2018-03-04T11:39:18.105Z,65.67
2018-03-04T11:41:47.933Z,65.63
2018-03-04T11:44:17.739Z,66.43
2018-03-04T11:46:47.477Z,66.73
2018-03-04T11:49:17.279Z,62.40
2018-03-04T11:51:47.172Z,61.50
2018-03-04T11:54:17.110Z,59.53
2018-03-04T11:56:46.832Z,58.50
2018-03-04T11:59:16.640Z,56.60
2018-03-04T12:01:46.398Z,57.43
2018-03-04T12:04:16.191Z,57.10
2018-03-04T12:06:46.025Z,58.97
2018-03-04T12:09:15.802Z,56.50
2018-03-04T12:11:45.592Z,59.27
2018-03-04T12:14:15.483Z,57.83
2018-03-04T12:16:45.204Z,56.63
2018-03-04T12:19:15.086Z,53.57
2018-03-04T12:21:44.794Z,55.57
2018-03-04T12:24:14.517Z,51.03
2018-03-04T12:26:44.270Z,50.50
2018-03-04T12:29:14.075Z,48.13
2018-03-04T12:31:43.870Z,47.83
2018-03-04T12:34:13.779Z,46.50
2018-03-04T12:36:43.538Z,48.90
2018-03-04T12:39:13.350Z,47.20
2018-03-04T12:41:43.146Z,49.53
2018-03-04T12:44:12.991Z,50.80
2018-03-04T12:46:42.696Z,50.50
2018-03-04T12:49:12.506Z,49.80
2018-03-04T12:51:42.340Z,52.10
2018-03-04T12:54:12.123Z,51.20
2018-03-04T12:56:41.883Z,49.27
2018-03-04T12:59:11.792Z,52.63
2018-03-04T13:01:41.666Z,53.67
2018-03-04T13:04:11.531Z,55.00
2018-03-04T13:06:41.432Z,55.70
2018-03-04T13:09:11.412Z,54.50
2018-03-04T13:11:41.372Z,52.60
2018-03-04T13:14:11.482Z,53.13
2018-03-04T13:16:41.392Z,52.33
2018-03-04T13:19:11.422Z,52.20
2018-03-04T13:21:41.335Z,51.07
2018-03-04T13:24:11.246Z,50.43
2018-03-04T13:26:41.052Z,49.30
2018-03-04T13:29:10.981Z,50.27
2018-03-04T13:31:40.998Z,51.30
2018-03-04T13:34:11.017Z,53.10
2018-03-04T13:36:40.826Z,55.40
2018-03-04T13:39:10.696Z,55.97
2018-03-04T13:41:40.652Z,56.57
2018-03-04T13:44:10.646Z,56.87
2018-03-04T13:46:40.583Z,58.60
2018-03-04T13:49:10.406Z,59.90
2018-03-04T13:51:40.409Z,59.43
2018-03-04T13:54:10.526Z,58.40
2018-03-04T13:56:40.452Z,61.70
2018-03-04T13:59:10.371Z,59.63
2018-03-04T14:01:40.281Z,58.60
2018-03-04T14:04:11.005Z,55.00
2018-03-04T14:06:40.930Z,50.57
2018-03-04T14:09:10.733Z,50.80
2018-03-04T14:11:40.764Z,44.37
2018-03-04T14:14:10.679Z,37.87
2018-03-04T14:16:40.477Z,34.03
2018-03-04T14:19:10.366Z,30.60
2018-03-04T14:21:40.204Z,27.73
2018-03-04T14:24:10.123Z,26.50
2018-03-04T14:26:39.937Z,26.13
2018-03-04T14:29:10.679Z,26.67
2018-03-04T14:31:40.681Z,26.93
2018-03-04T14:34:10.609Z,26.47
2018-03-04T14:36:40.518Z,26.77
2018-03-04T14:39:10.394Z,26.63
2018-03-04T14:41:41.065Z,27.90
2018-03-04T14:44:10.960Z,28.00
2018-03-04T14:46:40.795Z,28.77
2018-03-04T14:49:10.615Z,28.70
2018-03-04T14:51:40.524Z,29.13
2018-03-04T14:54:10.534Z,30.00
2018-03-04T14:56:40.452Z,30.33
2018-03-04T14:59:10.366Z,31.53
2018-03-04T15:01:40.287Z,32.97
2018-03-04T15:04:10.317Z,31.50
2018-03-04T15:06:40.217Z,31.37
2018-03-04T15:09:10.249Z,30.90
2018-03-04T15:11:40.959Z,32.57
2018-03-04T15:14:10.772Z,30.60
2018-03-04T15:16:40.586Z,30.47
2018-03-04T15:19:10.519Z,32.50
2018-03-04T15:21:40.318Z,32.50
2018-03-04T15:24:10.421Z,31.87
2018-03-04T15:26:40.542Z,30.10
2018-03-04T15:29:10.379Z,31.20
2018-03-04T15:31:40.280Z,33.10
2018-03-04T15:34:11.028Z,33.17
2018-03-04T15:36:40.932Z,32.50
2018-03-04T15:39:10.872Z,32.70
2018-03-04T15:41:40.967Z,33.13
2018-03-04T15:44:10.881Z,31.20
2018-03-04T15:46:40.802Z,34.50
2018-03-04T15:49:10.909Z,34.07
2018-03-04T15:51:40.734Z,33.40
2018-03-04T15:54:10.661Z,36.13
2018-03-04T15:56:40.564Z,36.07
2018-03-04T15:59:10.659Z,34.73
2018-03-04T16:01:40.511Z,34.37
2018-03-04T16:04:10.424Z,33.23
2018-03-04T16:06:41.142Z,37.40
2018-03-04T16:09:11.572Z,37.00
2018-03-04T16:11:41.491Z,35.63
2018-03-04T16:14:11.367Z,34.50
2018-03-04T16:16:41.218Z,36.40
2018-03-04T16:19:11.129Z,37.90
2018-03-04T16:21:40.989Z,36.20
2018-03-04T16:24:10.979Z,39.33
2018-03-04T16:26:40.972Z,36.50
2018-03-04T16:29:10.833Z,37.23
2018-03-04T16:31:40.721Z,37.07
2018-03-04T16:34:10.723Z,34.13
2018-03-04T16:36:40.527Z,34.27
2018-03-04T16:39:10.544Z,36.13
2018-03-04T16:41:40.560Z,35.40
2018-03-04T16:44:10.484Z,37.10
2018-03-04T16:46:40.294Z,36.03
2018-03-04T16:49:10.208Z,36.97
2018-03-04T16:51:40.022Z,36.73
2018-03-04T16:54:10.056Z,37.43
2018-03-04T16:56:40.685Z,38.23
2018-03-04T16:59:11.444Z,39.83
2018-03-04T17:01:42.643Z,43.00
2018-03-04T17:04:13.372Z,41.43
2018-03-04T17:06:44.023Z,41.50
2018-03-04T17:09:14.611Z,41.63
2018-03-04T17:11:45.482Z,40.77
2018-03-04T17:14:16.216Z,40.77
2018-03-04T17:16:47.198Z,39.93
2018-03-04T17:19:17.684Z,40.57
2018-03-04T17:21:48.416Z,40.57
2018-03-04T17:24:19.053Z,40.23
2018-03-04T17:26:50.095Z,40.83
2018-03-04T17:29:21.269Z,39.20
2018-03-04T17:31:51.843Z,39.83
2018-03-04T17:34:22.591Z,39.53
2018-03-04T17:36:53.485Z,42.07
2018-03-04T17:39:23.463Z,41.53
2018-03-04T17:41:54.520Z,39.40
2018-03-04T17:44:25.025Z,40.07
2018-03-04T17:46:55.924Z,39.90
2018-03-04T17:49:27.258Z,41.93
2018-03-04T17:51:58.158Z,38.77
2018-03-04T17:54:28.814Z,39.13
2018-03-04T17:56:59.631Z,40.47
2018-03-04T17:59:30.258Z,41.07
2018-03-04T18:02:00.701Z,39.23
2018-03-04T18:04:31.586Z,41.40
2018-03-04T18:07:02.461Z,40.00
2018-03-04T18:09:33.194Z,39.67
2018-03-04T18:12:03.204Z,40.67
2018-03-04T18:14:34.406Z,40.60
2018-03-04T18:17:04.910Z,41.97
2018-03-04T18:19:35.986Z,40.13
2018-03-04T18:22:07.204Z,41.43
2018-03-04T18:24:37.386Z,40.30
2018-03-04T18:27:08.718Z,40.73
2018-03-04T18:29:40.495Z,40.93
2018-03-04T18:32:11.902Z,39.53
2018-03-04T18:34:43.228Z,41.40
2018-03-04T18:37:14.887Z,40.50
2018-03-04T18:39:46.794Z,41.50
2018-03-04T18:42:18.368Z,43.00
2018-03-04T18:44:49.404Z,42.87
2018-03-04T18:47:21.494Z,43.17
2018-03-04T18:49:53.012Z,41.80
2018-03-04T18:52:25.420Z,42.83
2018-03-04T18:54:57.348Z,43.23
2018-03-04T18:57:28.853Z,45.10
2018-03-04T19:00:00.079Z,42.10
2018-03-04T19:02:31.189Z,43.00
2018-03-04T19:05:02.016Z,42.00
2018-03-04T19:07:32.057Z,40.80
2018-03-04T19:10:02.379Z,40.27
2018-03-04T19:12:32.912Z,40.53
2018-03-04T19:15:04.395Z,37.90
2018-03-04T19:17:35.172Z,36.10
2018-03-04T19:20:05.122Z,36.43
2018-03-04T19:22:35.134Z,35.50
2018-03-04T19:25:06.502Z,33.50
2018-03-04T19:27:38.040Z,32.50
2018-03-04T19:30:09.246Z,31.87
2018-03-04T19:32:39.981Z,32.70
2018-03-04T19:35:11.294Z,31.00
2018-03-04T19:37:43.134Z,32.10
2018-03-04T19:40:14.022Z,32.37
2018-03-04T19:42:45.262Z,32.80
2018-03-04T19:45:16.406Z,33.10
2018-03-04T19:47:47.975Z,31.13
2018-03-04T19:50:19.247Z,33.13
2018-03-04T19:52:50.908Z,31.13
2018-03-04T19:55:22.197Z,31.60
2018-03-04T19:57:53.533Z,30.57
2018-03-04T20:00:25.502Z,30.13
2018-03-04T20:02:57.011Z,29.37
2018-03-04T20:05:27.970Z,30.20
2018-03-04T20:07:58.538Z,28.97
2018-03-04T20:10:29.641Z,29.17
2018-03-04T20:13:00.789Z,27.97
2018-03-04T20:15:32.567Z,28.43
2018-03-04T20:18:04.131Z,29.30
2018-03-04T20:20:35.589Z,27.87
2018-03-04T20:23:07.811Z,27.13
2018-03-04T20:25:38.150Z,26.10
2018-03-04T20:28:09.303Z,29.80
2018-03-04T20:30:40.550Z,28.43
2018-03-04T20:33:11.995Z,28.83
2018-03-04T20:35:43.417Z,29.37
2018-03-04T20:38:14.359Z,30.37
2018-03-04T20:40:45.771Z,30.13
2018-03-04T20:43:17.264Z,30.00
2018-03-04T20:45:48.401Z,30.93
2018-03-04T20:48:19.146Z,31.43
2018-03-04T20:50:49.798Z,28.13
2018-03-04T20:53:20.520Z,29.60
2018-03-04T20:55:50.828Z,28.50
2018-03-04T20:58:21.936Z,29.20
2018-03-04T21:00:52.698Z,30.47
2018-03-04T21:03:23.292Z,30.43
2018-03-04T21:05:53.970Z,32.50
2018-03-04T21:08:24.966Z,31.53
2018-03-04T21:10:55.643Z,32.40
2018-03-04T21:13:26.328Z,31.97
2018-03-04T21:15:56.405Z,32.30
2018-03-04T21:18:27.554Z,30.43
2018-03-04T21:20:57.958Z,33.00
2018-03-04T21:23:28.624Z,30.87
2018-03-04T21:25:59.230Z,31.03
2018-03-04T21:28:30.193Z,33.03
2018-03-04T21:31:01.667Z,32.47
2018-03-04T21:33:32.258Z,30.70
2018-03-04T21:36:02.862Z,29.57
2018-03-04T21:38:33.837Z,29.50
2018-03-04T21:41:04.539Z,29.00
2018-03-04T21:43:34.798Z,29.20
2018-03-04T21:46:05.762Z,30.17
2018-03-04T21:48:36.017Z,30.30
2018-03-04T21:51:06.280Z,29.33
2018-03-04T21:53:37.058Z,30.07
2018-03-04T21:56:07.439Z,27.80
2018-03-04T21:58:37.358Z,29.77
2018-03-04T22:01:07.772Z,30.87
2018-03-04T22:03:38.874Z,30.17
2018-03-04T22:06:09.629Z,30.23
2018-03-04T22:08:40.502Z,28.50
2018-03-04T22:11:10.619Z,29.07
2018-03-04T22:13:41.037Z,27.60
2018-03-04T22:16:11.929Z,28.00
2018-03-04T22:18:41.787Z,27.03
2018-03-04T22:21:12.288Z,28.63
2018-03-04T22:23:42.962Z,28.80
2018-03-04T22:26:14.734Z,30.07
2018-03-04T22:28:45.110Z,30.03
2018-03-04T22:31:15.625Z,28.33
2018-03-04T22:33:46.278Z,28.37
2018-03-04T22:36:17.004Z,29.23
2018-03-04T22:38:48.163Z,28.93
2018-03-04T22:41:18.659Z,28.53
2018-03-04T22:43:49.395Z,27.07
2018-03-04T22:46:20.173Z,28.50
2018-03-04T22:48:50.791Z,27.97
2018-03-04T22:51:22.017Z,27.70
2018-03-04T22:53:52.832Z,26.80
2018-03-04T22:56:23.716Z,27.27
2018-03-04T22:58:54.133Z,28.10
2018-03-04T23:01:24.147Z,28.00
2018-03-04T23:03:55.080Z,30.10
2018-03-04T23:06:25.537Z,30.80
2018-03-04T23:08:57.029Z,34.83
2018-03-04T23:11:27.297Z,37.70
2018-03-04T23:13:57.955Z,39.67
2018-03-04T23:16:28.568Z,40.87
2018-03-04T23:18:59.094Z,42.67
2018-03-04T23:21:29.115Z,42.80
2018-03-04T23:23:59.408Z,41.50
2018-03-04T23:26:30.781Z,42.70
2018-03-04T23:29:03.513Z,40.37
2018-03-04T23:31:34.218Z,40.60
2018-03-04T23:34:04.886Z,39.40
2018-03-04T23:36:36.483Z,41.83
2018-03-04T23:39:07.223Z,42.33
2018-03-04T23:41:37.671Z,41.73
2018-03-04T23:44:08.172Z,42.43
2018-03-04T23:46:39.097Z,40.53
2018-03-04T23:49:09.951Z,40.30
2018-03-04T23:51:40.611Z,40.30
2018-03-04T23:54:11.736Z,38.57
2018-03-04T23:56:41.863Z,39.10
2018-03-04T23:59:12.687Z,36.07
